sensor_id;sensor_type;location;lat;lon;timestamp;temperature;humidity
45237;DHT22;30973;51.442;3.580;2022-09-03T00:00:32;22.00;74.20
45237;DHT22;30973;51.442;3.580;2022-09-03T00:03:07;22.00;74.70
45237;DHT22;30973;51.442;3.580;2022-09-03T00:05:44;22.00;75.20
45237;DHT22;30973;51.442;3.580;2022-09-03T00:11:17;22.00;75.00
45237;DHT22;30973;51.442;3.580;2022-09-03T00:16:29;22.00;77.20
45237;DHT22;30973;51.442;3.580;2022-09-03T00:19:00;22.00;78.00
45237;DHT22;30973;51.442;3.580;2022-09-03T00:21:46;22.00;79.10
45237;DHT22;30973;51.442;3.580;2022-09-03T00:24:18;22.00;77.10
45237;DHT22;30973;51.442;3.580;2022-09-03T00:26:49;22.00;75.80
45237;DHT22;30973;51.442;3.580;2022-09-03T00:29:22;21.90;76.10
45237;DHT22;30973;51.442;3.580;2022-09-03T00:31:55;22.00;76.70
45237;DHT22;30973;51.442;3.580;2022-09-03T00:34:33;22.00;76.90
45237;DHT22;30973;51.442;3.580;2022-09-03T00:37:01;22.00;77.30
45237;DHT22;30973;51.442;3.580;2022-09-03T00:39:29;21.90;78.10
45237;DHT22;30973;51.442;3.580;2022-09-03T00:47:48;21.80;76.70
45237;DHT22;30973;51.442;3.580;2022-09-03T00:50:44;21.80;77.10
45237;DHT22;30973;51.442;3.580;2022-09-03T01:04:47;21.70;75.90
45237;DHT22;30973;51.442;3.580;2022-09-03T01:07:22;21.70;75.50
45237;DHT22;30973;51.442;3.580;2022-09-03T01:10:13;21.70;75.90
45237;DHT22;30973;51.442;3.580;2022-09-03T01:13:06;21.70;76.70
45237;DHT22;30973;51.442;3.580;2022-09-03T01:16:15;21.70;76.80
45237;DHT22;30973;51.442;3.580;2022-09-03T01:19:03;21.70;76.40
45237;DHT22;30973;51.442;3.580;2022-09-03T01:24:26;21.70;76.60
45237;DHT22;30973;51.442;3.580;2022-09-03T01:38:11;21.60;75.50
45237;DHT22;30973;51.442;3.580;2022-09-03T01:41:10;21.60;75.80
45237;DHT22;30973;51.442;3.580;2022-09-03T01:46:42;21.50;76.20
45237;DHT22;30973;51.442;3.580;2022-09-03T01:52:24;21.50;75.90
45237;DHT22;30973;51.442;3.580;2022-09-03T01:55:11;21.40;76.40
45237;DHT22;30973;51.442;3.580;2022-09-03T01:58:05;21.40;76.40
45237;DHT22;30973;51.442;3.580;2022-09-03T02:00:36;21.40;75.90
45237;DHT22;30973;51.442;3.580;2022-09-03T02:03:06;21.30;76.20
45237;DHT22;30973;51.442;3.580;2022-09-03T02:05:36;21.30;76.50
45237;DHT22;30973;51.442;3.580;2022-09-03T02:08:07;21.30;76.70
45237;DHT22;30973;51.442;3.580;2022-09-03T02:10:44;21.20;76.70
45237;DHT22;30973;51.442;3.580;2022-09-03T02:13:27;21.20;77.10
45237;DHT22;30973;51.442;3.580;2022-09-03T02:15:59;21.20;77.20
45237;DHT22;30973;51.442;3.580;2022-09-03T02:18:32;21.10;77.20
45237;DHT22;30973;51.442;3.580;2022-09-03T02:21:03;21.20;77.00
45237;DHT22;30973;51.442;3.580;2022-09-03T02:23:31;21.10;77.80
45237;DHT22;30973;51.442;3.580;2022-09-03T02:26:02;21.20;77.10
45237;DHT22;30973;51.442;3.580;2022-09-03T02:28:30;21.20;77.40
45237;DHT22;30973;51.442;3.580;2022-09-03T02:30:58;21.10;77.40
45237;DHT22;30973;51.442;3.580;2022-09-03T02:33:26;21.10;77.40
45237;DHT22;30973;51.442;3.580;2022-09-03T02:35:54;21.10;77.80
45237;DHT22;30973;51.442;3.580;2022-09-03T02:38:23;21.10;77.70
45237;DHT22;30973;51.442;3.580;2022-09-03T02:40:54;21.10;78.10
45237;DHT22;30973;51.442;3.580;2022-09-03T02:46:01;21.10;78.10
45237;DHT22;30973;51.442;3.580;2022-09-03T02:48:30;21.10;78.00
45237;DHT22;30973;51.442;3.580;2022-09-03T02:50:57;21.10;78.00
45237;DHT22;30973;51.442;3.580;2022-09-03T02:53:25;21.10;78.60
45237;DHT22;30973;51.442;3.580;2022-09-03T02:55:59;21.00;78.30
45237;DHT22;30973;51.442;3.580;2022-09-03T02:58:27;21.10;78.40
45237;DHT22;30973;51.442;3.580;2022-09-03T03:00:55;21.00;78.70
45237;DHT22;30973;51.442;3.580;2022-09-03T03:03:22;21.00;79.10
45237;DHT22;30973;51.442;3.580;2022-09-03T03:05:55;21.00;79.50
45237;DHT22;30973;51.442;3.580;2022-09-03T03:08:25;21.00;79.60
45237;DHT22;30973;51.442;3.580;2022-09-03T03:10:55;20.90;79.80
45237;DHT22;30973;51.442;3.580;2022-09-03T03:13:25;21.00;80.00
45237;DHT22;30973;51.442;3.580;2022-09-03T03:16:01;20.90;80.10
45237;DHT22;30973;51.442;3.580;2022-09-03T03:18:29;20.90;80.50
45237;DHT22;30973;51.442;3.580;2022-09-03T03:20:56;20.80;80.50
45237;DHT22;30973;51.442;3.580;2022-09-03T03:23:23;20.90;80.60
45237;DHT22;30973;51.442;3.580;2022-09-03T03:25:51;20.80;81.30
45237;DHT22;30973;51.442;3.580;2022-09-03T03:28:18;20.90;81.20
45237;DHT22;30973;51.442;3.580;2022-09-03T03:30:46;20.90;81.50
45237;DHT22;30973;51.442;3.580;2022-09-03T03:33:14;20.80;81.50
45237;DHT22;30973;51.442;3.580;2022-09-03T03:35:41;20.80;81.40
45237;DHT22;30973;51.442;3.580;2022-09-03T03:38:09;20.80;81.60
45237;DHT22;30973;51.442;3.580;2022-09-03T03:40:39;20.80;82.40
45237;DHT22;30973;51.442;3.580;2022-09-03T03:43:06;20.80;82.00
45237;DHT22;30973;51.442;3.580;2022-09-03T03:45:33;20.70;82.30
45237;DHT22;30973;51.442;3.580;2022-09-03T03:48:01;20.70;82.40
45237;DHT22;30973;51.442;3.580;2022-09-03T03:50:28;20.70;83.80
45237;DHT22;30973;51.442;3.580;2022-09-03T03:52:58;20.70;85.00
45237;DHT22;30973;51.442;3.580;2022-09-03T03:55:27;20.60;84.40
45237;DHT22;30973;51.442;3.580;2022-09-03T03:58:00;20.60;83.50
45237;DHT22;30973;51.442;3.580;2022-09-03T04:00:28;20.60;83.50
45237;DHT22;30973;51.442;3.580;2022-09-03T04:02:56;20.60;83.80
45237;DHT22;30973;51.442;3.580;2022-09-03T04:05:23;20.60;83.90
45237;DHT22;30973;51.442;3.580;2022-09-03T04:07:52;20.60;85.00
45237;DHT22;30973;51.442;3.580;2022-09-03T04:10:21;20.60;87.10
45237;DHT22;30973;51.442;3.580;2022-09-03T04:12:48;20.70;85.30
45237;DHT22;30973;51.442;3.580;2022-09-03T04:15:15;20.70;85.90
45237;DHT22;30973;51.442;3.580;2022-09-03T04:17:42;20.70;85.80
45237;DHT22;30973;51.442;3.580;2022-09-03T04:20:10;20.70;85.30
45237;DHT22;30973;51.442;3.580;2022-09-03T04:22:37;20.70;85.60
45237;DHT22;30973;51.442;3.580;2022-09-03T04:25:04;20.70;86.60
45237;DHT22;30973;51.442;3.580;2022-09-03T04:27:31;20.70;86.80
45237;DHT22;30973;51.442;3.580;2022-09-03T04:29:59;20.70;86.50
45237;DHT22;30973;51.442;3.580;2022-09-03T04:32:27;20.70;87.30
45237;DHT22;30973;51.442;3.580;2022-09-03T04:35:22;20.70;87.60
45237;DHT22;30973;51.442;3.580;2022-09-03T04:37:50;20.60;87.40
45237;DHT22;30973;51.442;3.580;2022-09-03T04:40:17;20.60;88.00
45237;DHT22;30973;51.442;3.580;2022-09-03T04:42:45;20.60;88.00
45237;DHT22;30973;51.442;3.580;2022-09-03T04:45:12;20.60;90.10
45237;DHT22;30973;51.442;3.580;2022-09-03T04:47:55;20.70;88.60
45237;DHT22;30973;51.442;3.580;2022-09-03T04:50:23;20.70;90.10
45237;DHT22;30973;51.442;3.580;2022-09-03T04:53:02;20.60;90.50
45237;DHT22;30973;51.442;3.580;2022-09-03T04:55:35;20.70;90.70
45237;DHT22;30973;51.442;3.580;2022-09-03T04:58:03;20.70;90.30
45237;DHT22;30973;51.442;3.580;2022-09-03T05:00:31;20.60;90.50
45237;DHT22;30973;51.442;3.580;2022-09-03T05:03:01;20.70;90.40
45237;DHT22;30973;51.442;3.580;2022-09-03T05:05:31;20.60;90.80
45237;DHT22;30973;51.442;3.580;2022-09-03T05:07:59;20.60;91.00
45237;DHT22;30973;51.442;3.580;2022-09-03T05:10:30;20.60;90.70
45237;DHT22;30973;51.442;3.580;2022-09-03T05:13:01;20.60;91.20
45237;DHT22;30973;51.442;3.580;2022-09-03T05:15:31;20.60;91.30
45237;DHT22;30973;51.442;3.580;2022-09-03T05:17:59;20.70;91.80
45237;DHT22;30973;51.442;3.580;2022-09-03T05:20:28;20.60;91.30
45237;DHT22;30973;51.442;3.580;2022-09-03T05:22:59;20.60;91.30
45237;DHT22;30973;51.442;3.580;2022-09-03T05:25:27;20.70;91.80
45237;DHT22;30973;51.442;3.580;2022-09-03T05:27:54;20.70;92.20
45237;DHT22;30973;51.442;3.580;2022-09-03T05:30:22;20.70;92.20
45237;DHT22;30973;51.442;3.580;2022-09-03T05:32:49;20.70;93.10
45237;DHT22;30973;51.442;3.580;2022-09-03T05:35:17;20.70;92.50
45237;DHT22;30973;51.442;3.580;2022-09-03T05:37:49;20.70;92.80
45237;DHT22;30973;51.442;3.580;2022-09-03T05:40:17;20.70;92.10
45237;DHT22;30973;51.442;3.580;2022-09-03T05:42:44;20.80;92.50
45237;DHT22;30973;51.442;3.580;2022-09-03T05:45:11;20.80;92.60
45237;DHT22;30973;51.442;3.580;2022-09-03T05:47:39;20.80;92.50
45237;DHT22;30973;51.442;3.580;2022-09-03T05:50:07;20.80;91.70
45237;DHT22;30973;51.442;3.580;2022-09-03T05:52:36;20.80;91.90
45237;DHT22;30973;51.442;3.580;2022-09-03T05:55:04;20.90;92.40
45237;DHT22;30973;51.442;3.580;2022-09-03T05:57:31;20.90;92.00
45237;DHT22;30973;51.442;3.580;2022-09-03T05:59:59;20.90;91.80
45237;DHT22;30973;51.442;3.580;2022-09-03T06:02:26;20.90;92.20
45237;DHT22;30973;51.442;3.580;2022-09-03T06:04:54;20.90;92.50
45237;DHT22;30973;51.442;3.580;2022-09-03T06:07:22;20.90;91.80
45237;DHT22;30973;51.442;3.580;2022-09-03T06:09:50;20.90;91.90
45237;DHT22;30973;51.442;3.580;2022-09-03T06:12:18;21.00;91.70
45237;DHT22;30973;51.442;3.580;2022-09-03T06:14:45;21.10;92.10
45237;DHT22;30973;51.442;3.580;2022-09-03T06:17:12;21.10;91.90
45237;DHT22;30973;51.442;3.580;2022-09-03T06:19:40;21.10;91.70
45237;DHT22;30973;51.442;3.580;2022-09-03T06:22:08;21.10;91.70
45237;DHT22;30973;51.442;3.580;2022-09-03T06:24:35;21.10;91.60
45237;DHT22;30973;51.442;3.580;2022-09-03T06:27:03;21.20;92.00
45237;DHT22;30973;51.442;3.580;2022-09-03T06:29:30;21.30;92.00
45237;DHT22;30973;51.442;3.580;2022-09-03T06:31:57;21.30;92.20
45237;DHT22;30973;51.442;3.580;2022-09-03T06:34:25;21.30;92.20
45237;DHT22;30973;51.442;3.580;2022-09-03T06:36:54;21.40;91.80
45237;DHT22;30973;51.442;3.580;2022-09-03T06:39:21;21.40;91.70
45237;DHT22;30973;51.442;3.580;2022-09-03T06:41:49;21.50;92.10
45237;DHT22;30973;51.442;3.580;2022-09-03T06:44:25;21.50;92.00
45237;DHT22;30973;51.442;3.580;2022-09-03T06:46:52;21.50;92.00
45237;DHT22;30973;51.442;3.580;2022-09-03T06:49:19;21.60;91.90
45237;DHT22;30973;51.442;3.580;2022-09-03T06:51:47;21.70;92.10
45237;DHT22;30973;51.442;3.580;2022-09-03T06:54:14;21.70;92.20
45237;DHT22;30973;51.442;3.580;2022-09-03T06:56:41;21.70;92.30
45237;DHT22;30973;51.442;3.580;2022-09-03T06:59:11;21.80;92.70
45237;DHT22;30973;51.442;3.580;2022-09-03T07:01:39;21.80;92.50
45237;DHT22;30973;51.442;3.580;2022-09-03T07:04:12;21.80;92.50
45237;DHT22;30973;51.442;3.580;2022-09-03T07:06:40;21.90;92.40
45237;DHT22;30973;51.442;3.580;2022-09-03T07:09:10;21.90;92.40
45237;DHT22;30973;51.442;3.580;2022-09-03T07:11:38;21.90;92.40
45237;DHT22;30973;51.442;3.580;2022-09-03T07:14:15;21.90;92.60
45237;DHT22;30973;51.442;3.580;2022-09-03T07:16:43;21.90;92.20
45237;DHT22;30973;51.442;3.580;2022-09-03T07:19:12;21.90;92.20
45237;DHT22;30973;51.442;3.580;2022-09-03T07:21:40;21.90;92.40
45237;DHT22;30973;51.442;3.580;2022-09-03T07:24:15;21.90;92.40
45237;DHT22;30973;51.442;3.580;2022-09-03T07:26:42;22.00;92.30
45237;DHT22;30973;51.442;3.580;2022-09-03T07:29:12;22.00;92.60
45237;DHT22;30973;51.442;3.580;2022-09-03T07:31:42;22.10;92.40
45237;DHT22;30973;51.442;3.580;2022-09-03T07:34:11;22.10;92.40
45237;DHT22;30973;51.442;3.580;2022-09-03T07:36:44;22.20;92.50
45237;DHT22;30973;51.442;3.580;2022-09-03T07:39:15;22.30;92.40
45237;DHT22;30973;51.442;3.580;2022-09-03T07:41:44;22.40;92.20
45237;DHT22;30973;51.442;3.580;2022-09-03T07:44:14;22.50;92.10
45237;DHT22;30973;51.442;3.580;2022-09-03T07:46:42;22.60;92.30
45237;DHT22;30973;51.442;3.580;2022-09-03T07:49:12;22.70;92.40
45237;DHT22;30973;51.442;3.580;2022-09-03T07:51:39;22.80;92.60
45237;DHT22;30973;51.442;3.580;2022-09-03T07:54:08;23.00;95.90
45237;DHT22;30973;51.442;3.580;2022-09-03T07:56:38;23.00;92.30
45237;DHT22;30973;51.442;3.580;2022-09-03T07:59:06;23.10;92.40
45237;DHT22;30973;51.442;3.580;2022-09-03T08:01:35;23.20;92.20
45237;DHT22;30973;51.442;3.580;2022-09-03T08:04:05;23.20;92.10
45237;DHT22;30973;51.442;3.580;2022-09-03T08:06:37;23.60;93.60
45237;DHT22;30973;51.442;3.580;2022-09-03T08:09:08;23.50;91.90
45237;DHT22;30973;51.442;3.580;2022-09-03T08:11:39;23.60;92.10
45237;DHT22;30973;51.442;3.580;2022-09-03T08:14:09;23.60;92.00
45237;DHT22;30973;51.442;3.580;2022-09-03T08:16:54;23.60;92.00
45237;DHT22;30973;51.442;3.580;2022-09-03T08:19:22;23.50;91.90
45237;DHT22;30973;51.442;3.580;2022-09-03T08:21:49;23.40;91.80
45237;DHT22;30973;51.442;3.580;2022-09-03T08:24:17;23.50;91.80
45237;DHT22;30973;51.442;3.580;2022-09-03T08:26:47;23.60;92.10
45237;DHT22;30973;51.442;3.580;2022-09-03T08:29:19;23.60;91.90
45237;DHT22;30973;51.442;3.580;2022-09-03T08:31:46;23.70;92.10
45237;DHT22;30973;51.442;3.580;2022-09-03T08:34:13;23.70;93.30
45237;DHT22;30973;51.442;3.580;2022-09-03T08:36:43;23.70;92.50
45237;DHT22;30973;51.442;3.580;2022-09-03T08:39:13;23.90;93.90
45237;DHT22;30973;51.442;3.580;2022-09-03T08:46:59;24.00;95.80
45237;DHT22;30973;51.442;3.580;2022-09-03T08:49:33;24.00;91.50
45237;DHT22;30973;51.442;3.580;2022-09-03T08:52:06;24.20;94.10
45237;DHT22;30973;51.442;3.580;2022-09-03T08:54:35;24.10;95.30
45237;DHT22;30973;51.442;3.580;2022-09-03T08:57:05;24.20;94.00
45237;DHT22;30973;51.442;3.580;2022-09-03T08:59:33;24.10;93.70
45237;DHT22;30973;51.442;3.580;2022-09-03T09:05:11;23.90;93.00
45237;DHT22;30973;51.442;3.580;2022-09-03T09:10:40;23.70;92.30
45237;DHT22;30973;51.442;3.580;2022-09-03T09:13:27;23.60;92.50
45237;DHT22;30973;51.442;3.580;2022-09-03T09:16:07;23.60;92.50
45237;DHT22;30973;51.442;3.580;2022-09-03T09:18:41;23.70;92.30
45237;DHT22;30973;51.442;3.580;2022-09-03T09:21:15;23.70;92.30
45237;DHT22;30973;51.442;3.580;2022-09-03T09:23:49;24.00;90.20
45237;DHT22;30973;51.442;3.580;2022-09-03T09:26:19;23.90;90.20
45237;DHT22;30973;51.442;3.580;2022-09-03T09:28:57;24.10;90.10
45237;DHT22;30973;51.442;3.580;2022-09-03T09:31:27;24.10;89.00
45237;DHT22;30973;51.442;3.580;2022-09-03T09:34:03;24.10;89.10
45237;DHT22;30973;51.442;3.580;2022-09-03T09:36:53;24.10;89.30
45237;DHT22;30973;51.442;3.580;2022-09-03T09:39:22;24.10;89.60
45237;DHT22;30973;51.442;3.580;2022-09-03T09:42:04;24.00;89.10
45237;DHT22;30973;51.442;3.580;2022-09-03T09:44:36;23.90;89.30
45237;DHT22;30973;51.442;3.580;2022-09-03T09:47:15;23.90;90.00
45237;DHT22;30973;51.442;3.580;2022-09-03T09:49:55;23.80;90.00
45237;DHT22;30973;51.442;3.580;2022-09-03T09:52:25;23.80;90.20
45237;DHT22;30973;51.442;3.580;2022-09-03T09:55:10;23.80;90.10
45237;DHT22;30973;51.442;3.580;2022-09-03T09:57:40;23.90;90.10
45237;DHT22;30973;51.442;3.580;2022-09-03T10:00:16;23.90;90.20
45237;DHT22;30973;51.442;3.580;2022-09-03T10:02:51;24.00;90.00
45237;DHT22;30973;51.442;3.580;2022-09-03T10:05:23;24.10;90.00
45237;DHT22;30973;51.442;3.580;2022-09-03T10:08:01;24.20;90.10
45237;DHT22;30973;51.442;3.580;2022-09-03T10:10:33;24.30;89.60
45237;DHT22;30973;51.442;3.580;2022-09-03T10:13:10;24.30;89.10
45237;DHT22;30973;51.442;3.580;2022-09-03T10:15:47;24.30;89.30
45237;DHT22;30973;51.442;3.580;2022-09-03T10:21:07;24.50;89.30
45237;DHT22;30973;51.442;3.580;2022-09-03T10:23:50;24.60;89.20
45237;DHT22;30973;51.442;3.580;2022-09-03T10:26:23;24.80;88.80
45237;DHT22;30973;51.442;3.580;2022-09-03T10:29:01;25.00;88.70
45237;DHT22;30973;51.442;3.580;2022-09-03T10:31:32;25.10;88.00
45237;DHT22;30973;51.442;3.580;2022-09-03T10:45:38;25.40;87.20
45237;DHT22;30973;51.442;3.580;2022-09-03T10:58:51;25.50;87.10
45237;DHT22;30973;51.442;3.580;2022-09-03T11:06:54;25.70;87.40
45237;DHT22;30973;51.442;3.580;2022-09-03T11:09:30;25.80;87.40
45237;DHT22;30973;51.442;3.580;2022-09-03T11:12:04;25.80;87.10
45237;DHT22;30973;51.442;3.580;2022-09-03T11:14:45;25.80;86.90
45237;DHT22;30973;51.442;3.580;2022-09-03T11:17:24;25.60;86.90
45237;DHT22;30973;51.442;3.580;2022-09-03T11:20:06;25.70;87.30
45237;DHT22;30973;51.442;3.580;2022-09-03T11:22:36;25.70;87.40
45237;DHT22;30973;51.442;3.580;2022-09-03T11:25:06;25.90;87.50
45237;DHT22;30973;51.442;3.580;2022-09-03T11:27:52;25.90;87.30
45237;DHT22;30973;51.442;3.580;2022-09-03T11:30:28;25.90;87.10
45237;DHT22;30973;51.442;3.580;2022-09-03T11:33:06;26.00;87.40
45237;DHT22;30973;51.442;3.580;2022-09-03T11:38:04;26.10;87.30
45237;DHT22;30973;51.442;3.580;2022-09-03T11:40:37;26.10;87.50
45237;DHT22;30973;51.442;3.580;2022-09-03T11:43:23;26.10;85.90
45237;DHT22;30973;51.442;3.580;2022-09-03T11:48:53;26.10;86.40
45237;DHT22;30973;51.442;3.580;2022-09-03T11:54:23;26.30;86.20
45237;DHT22;30973;51.442;3.580;2022-09-03T11:57:14;26.50;86.40
45237;DHT22;30973;51.442;3.580;2022-09-03T11:59:42;26.80;86.00
45237;DHT22;30973;51.442;3.580;2022-09-03T12:05:11;26.90;84.70
45237;DHT22;30973;51.442;3.580;2022-09-03T12:10:55;27.10;85.00
45237;DHT22;30973;51.442;3.580;2022-09-03T12:14:02;27.50;99.90
45237;DHT22;30973;51.442;3.580;2022-09-03T12:22:18;27.90;89.00
45237;DHT22;30973;51.442;3.580;2022-09-03T12:24:46;28.00;95.10
45237;DHT22;30973;51.442;3.580;2022-09-03T12:27:18;28.00;91.20
45237;DHT22;30973;51.442;3.580;2022-09-03T12:29:53;28.00;82.60
45237;DHT22;30973;51.442;3.580;2022-09-03T12:32:29;28.20;83.00
45237;DHT22;30973;51.442;3.580;2022-09-03T12:35:14;28.40;82.10
45237;DHT22;30973;51.442;3.580;2022-09-03T12:38:01;28.50;81.90
45237;DHT22;30973;51.442;3.580;2022-09-03T12:40:34;28.70;81.00
45237;DHT22;30973;51.442;3.580;2022-09-03T12:43:27;28.90;82.00
45237;DHT22;30973;51.442;3.580;2022-09-03T12:46:12;29.20;89.10
45237;DHT22;30973;51.442;3.580;2022-09-03T12:48:52;29.20;80.50
45237;DHT22;30973;51.442;3.580;2022-09-03T12:51:41;29.30;80.40
45237;DHT22;30973;51.442;3.580;2022-09-03T12:54:22;29.30;80.10
45237;DHT22;30973;51.442;3.580;2022-09-03T12:56:56;29.20;79.60
45237;DHT22;30973;51.442;3.580;2022-09-03T12:59:26;29.20;79.50
45237;DHT22;30973;51.442;3.580;2022-09-03T13:01:58;29.10;79.70
45237;DHT22;30973;51.442;3.580;2022-09-03T13:04:32;29.10;79.60
45237;DHT22;30973;51.442;3.580;2022-09-03T13:07:05;29.00;79.60
45237;DHT22;30973;51.442;3.580;2022-09-03T13:09:36;29.00;79.20
45237;DHT22;30973;51.442;3.580;2022-09-03T13:12:04;29.20;78.60
45237;DHT22;30973;51.442;3.580;2022-09-03T13:14:46;29.30;78.60
45237;DHT22;30973;51.442;3.580;2022-09-03T13:17:30;29.40;78.90
45237;DHT22;30973;51.442;3.580;2022-09-03T13:20:22;29.40;79.20
45237;DHT22;30973;51.442;3.580;2022-09-03T13:23:22;29.60;78.80
45237;DHT22;30973;51.442;3.580;2022-09-03T13:26:03;29.40;77.30
45237;DHT22;30973;51.442;3.580;2022-09-03T13:31:48;29.20;78.30
45237;DHT22;30973;51.442;3.580;2022-09-03T13:34:44;29.30;78.60
45237;DHT22;30973;51.442;3.580;2022-09-03T13:39:55;29.30;77.60
45237;DHT22;30973;51.442;3.580;2022-09-03T13:48:06;28.80;78.10
45237;DHT22;30973;51.442;3.580;2022-09-03T13:51:09;28.60;77.70
45237;DHT22;30973;51.442;3.580;2022-09-03T13:54:04;28.50;78.00
45237;DHT22;30973;51.442;3.580;2022-09-03T13:59:54;28.30;78.80
45237;DHT22;30973;51.442;3.580;2022-09-03T14:02:43;28.20;78.70
45237;DHT22;30973;51.442;3.580;2022-09-03T14:05:18;28.10;79.30
45237;DHT22;30973;51.442;3.580;2022-09-03T14:16:18;27.90;79.00
45237;DHT22;30973;51.442;3.580;2022-09-03T14:18:57;27.90;79.00
45237;DHT22;30973;51.442;3.580;2022-09-03T14:21:46;27.90;79.50
45237;DHT22;30973;51.442;3.580;2022-09-03T14:24:26;27.80;79.30
45237;DHT22;30973;51.442;3.580;2022-09-03T14:26:59;27.80;79.10
45237;DHT22;30973;51.442;3.580;2022-09-03T14:29:33;27.80;79.30
45237;DHT22;30973;51.442;3.580;2022-09-03T14:35:05;27.70;79.50
45237;DHT22;30973;51.442;3.580;2022-09-03T14:59:18;27.40;80.50
45237;DHT22;30973;51.442;3.580;2022-09-03T15:02:11;27.40;80.40
45237;DHT22;30973;51.442;3.580;2022-09-03T15:05:05;27.30;80.50
45237;DHT22;30973;51.442;3.580;2022-09-03T15:10:35;27.50;80.30
45237;DHT22;30973;51.442;3.580;2022-09-03T15:13:09;27.70;80.20
45237;DHT22;30973;51.442;3.580;2022-09-03T15:18:25;27.80;80.20
45237;DHT22;30973;51.442;3.580;2022-09-03T15:27:00;27.80;79.40
45237;DHT22;30973;51.442;3.580;2022-09-03T15:37:46;27.70;78.90
45237;DHT22;30973;51.442;3.580;2022-09-03T15:43:28;27.40;80.50
45237;DHT22;30973;51.442;3.580;2022-09-03T15:46:02;27.30;81.00
45237;DHT22;30973;51.442;3.580;2022-09-03T15:49:00;27.20;81.30
45237;DHT22;30973;51.442;3.580;2022-09-03T15:51:34;27.10;81.00
45237;DHT22;30973;51.442;3.580;2022-09-03T16:02:58;26.70;81.20
45237;DHT22;30973;51.442;3.580;2022-09-03T16:05:23;26.70;81.50
45237;DHT22;30973;51.442;3.580;2022-09-03T16:19:17;26.40;81.40
45237;DHT22;30973;51.442;3.580;2022-09-03T16:27:40;26.40;80.90
45237;DHT22;30973;51.442;3.580;2022-09-03T16:30:11;26.30;80.40
45237;DHT22;30973;51.442;3.580;2022-09-03T16:35:57;26.30;80.50
45237;DHT22;30973;51.442;3.580;2022-09-03T16:38:44;26.20;81.40
45237;DHT22;30973;51.442;3.580;2022-09-03T16:46:34;25.90;88.20
45237;DHT22;30973;51.442;3.580;2022-09-03T16:52:02;25.50;90.40
45237;DHT22;30973;51.442;3.580;2022-09-03T16:55:42;25.40;90.70
45237;DHT22;30973;51.442;3.580;2022-09-03T16:57:58;25.40;90.30
45237;DHT22;30973;51.442;3.580;2022-09-03T17:06:43;25.30;90.80
45237;DHT22;30973;51.442;3.580;2022-09-03T17:09:55;25.20;90.10
45237;DHT22;30973;51.442;3.580;2022-09-03T17:12:36;25.20;89.40
45237;DHT22;30973;51.442;3.580;2022-09-03T17:15:25;25.20;89.40
45237;DHT22;30973;51.442;3.580;2022-09-03T17:18:06;25.20;89.50
45237;DHT22;30973;51.442;3.580;2022-09-03T17:30:56;25.20;88.80
45237;DHT22;30973;51.442;3.580;2022-09-03T17:36:23;25.20;89.00
45237;DHT22;30973;51.442;3.580;2022-09-03T17:49:53;24.90;88.60
45237;DHT22;30973;51.442;3.580;2022-09-03T17:52:42;24.80;88.50
45237;DHT22;30973;51.442;3.580;2022-09-03T17:55:27;24.80;88.40
45237;DHT22;30973;51.442;3.580;2022-09-03T17:58:10;24.70;88.40
45237;DHT22;30973;51.442;3.580;2022-09-03T18:00:56;24.70;88.60
45237;DHT22;30973;51.442;3.580;2022-09-03T18:03:48;24.70;88.70
45237;DHT22;30973;51.442;3.580;2022-09-03T18:06:23;24.70;89.20
45237;DHT22;30973;51.442;3.580;2022-09-03T18:09:27;24.70;89.60
45237;DHT22;30973;51.442;3.580;2022-09-03T18:12:20;24.70;89.70
45237;DHT22;30973;51.442;3.580;2022-09-03T18:14:58;24.60;90.30
45237;DHT22;30973;51.442;3.580;2022-09-03T18:17:34;24.60;90.20
45237;DHT22;30973;51.442;3.580;2022-09-03T18:20:07;24.50;90.10
45237;DHT22;30973;51.442;3.580;2022-09-03T18:23:17;24.50;90.00
45237;DHT22;30973;51.442;3.580;2022-09-03T18:26:15;24.40;90.50
45237;DHT22;30973;51.442;3.580;2022-09-03T18:29:18;24.30;90.40
45237;DHT22;30973;51.442;3.580;2022-09-03T18:32:04;24.30;90.40
45237;DHT22;30973;51.442;3.580;2022-09-03T18:34:50;24.30;90.90
45237;DHT22;30973;51.442;3.580;2022-09-03T18:37:37;24.20;90.70
45237;DHT22;30973;51.442;3.580;2022-09-03T18:40:32;24.20;91.00
45237;DHT22;30973;51.442;3.580;2022-09-03T18:56:50;24.10;91.40
45237;DHT22;30973;51.442;3.580;2022-09-03T19:05:56;24.10;91.50
45237;DHT22;30973;51.442;3.580;2022-09-03T19:09:29;24.00;91.30
45237;DHT22;30973;51.442;3.580;2022-09-03T19:15:30;23.80;91.10
45237;DHT22;30973;51.442;3.580;2022-09-03T19:18:35;23.80;91.10
45237;DHT22;30973;51.442;3.580;2022-09-03T19:21:45;23.70;90.90
45237;DHT22;30973;51.442;3.580;2022-09-03T19:24:33;23.70;91.00
45237;DHT22;30973;51.442;3.580;2022-09-03T19:30:32;23.60;91.20
45237;DHT22;30973;51.442;3.580;2022-09-03T19:37:10;23.50;91.10
45237;DHT22;30973;51.442;3.580;2022-09-03T19:40:05;23.50;90.80
45237;DHT22;30973;51.442;3.580;2022-09-03T19:46:39;23.40;90.80
45237;DHT22;30973;51.442;3.580;2022-09-03T19:55:25;23.30;90.60
45237;DHT22;30973;51.442;3.580;2022-09-03T19:58:17;23.30;90.70
45237;DHT22;30973;51.442;3.580;2022-09-03T20:01:11;23.30;90.80
45237;DHT22;30973;51.442;3.580;2022-09-03T20:03:59;23.20;90.70
45237;DHT22;30973;51.442;3.580;2022-09-03T20:06:49;23.20;90.90
45237;DHT22;30973;51.442;3.580;2022-09-03T20:09:39;23.20;90.80
45237;DHT22;30973;51.442;3.580;2022-09-03T20:12:31;23.30;90.80
45237;DHT22;30973;51.442;3.580;2022-09-03T20:15:05;23.20;91.00
45237;DHT22;30973;51.442;3.580;2022-09-03T20:18:11;23.20;91.10
45237;DHT22;30973;51.442;3.580;2022-09-03T20:51:08;23.30;92.40
45237;DHT22;30973;51.442;3.580;2022-09-03T20:53:53;23.30;92.20
45237;DHT22;30973;51.442;3.580;2022-09-03T21:02:00;23.30;92.90
45237;DHT22;30973;51.442;3.580;2022-09-03T21:07:20;23.30;93.20
45237;DHT22;30973;51.442;3.580;2022-09-03T21:10:02;23.30;94.80
45237;DHT22;30973;51.442;3.580;2022-09-03T21:15:48;23.20;94.30
45237;DHT22;30973;51.442;3.580;2022-09-03T21:18:28;23.10;93.50
45237;DHT22;30973;51.442;3.580;2022-09-03T21:21:22;23.10;93.40
45237;DHT22;30973;51.442;3.580;2022-09-03T21:26:46;23.00;93.40
45237;DHT22;30973;51.442;3.580;2022-09-03T21:29:31;23.00;93.50
45237;DHT22;30973;51.442;3.580;2022-09-03T21:32:19;22.90;93.60
45237;DHT22;30973;51.442;3.580;2022-09-03T21:35:00;22.90;93.60
45237;DHT22;30973;51.442;3.580;2022-09-03T21:37:34;22.90;93.50
45237;DHT22;30973;51.442;3.580;2022-09-03T21:40:03;22.80;93.30
45237;DHT22;30973;51.442;3.580;2022-09-03T21:42:38;22.80;93.50
45237;DHT22;30973;51.442;3.580;2022-09-03T21:45:30;22.70;93.40
45237;DHT22;30973;51.442;3.580;2022-09-03T21:48:12;22.70;93.50
45237;DHT22;30973;51.442;3.580;2022-09-03T21:50:55;22.70;93.50
45237;DHT22;30973;51.442;3.580;2022-09-03T22:04:02;22.60;93.60